Terminal Aerodrome Forecast
Issued by NWS Tampa Bay Area, FL

Home | Current Version | Previous Version | Text Only | Print | Product List | Glossary On
Versions: 1 2 3 4 5 6 7 8 9 10 11 12 13 14
139
FTUS42 KTBW 030520
TAFFMY
TAF
KFMY 030520Z 0306/0406 VRB03KT P6SM VCSH SCT020 BKN040
      TEMPO 0306/0308 6SM -RA BKN025
     FM030800 VRB03KT P6SM SCT015 BKN040
     FM031500 21008KT P6SM SCT030 BKN200
     FM031900 24010G15KT P6SM FEW050 BKN200
     FM040000 26007KT P6SM BKN200=

USA.gov is the U.S. government's official web portal to all federal, state and local government web resources and services.